Toyofujimaru No.2 — 7JDI — position and weather

sailwx.info

Track history (hours):
 
Tides and Currents Weather Stations Pressure Air Temp Water Temp Dewpoint Dewpoint Depression Visibility Wind Speed Wind Dir Waves Ship Positions

Toyofujimaru No.2

Last reported at 2015-Apr-27 04:33 UTC. Time now 2015-Apr-28 18:20 UTC.
Position N 22°06' E 113°49'.

Length 165 m; draft 6.4 m.

Type: Cargo ship. MMSI: 432667000.

Date/timePositionNaut miles runAvg speedWind from/ knotsBaromVisibWave heightAir tempDewpointWater temp
2015-Apr-27 04:33N 22°06' E 113°49'1312.9
2015-Apr-27 03:33N 22°19' E 113°48'2913.8
2015-Apr-27 01:27N 22°46' E 113°38'1010.8
2015-Apr-27 00:33N 22°55' E 113°34'6 5.9
2015-Apr-26 23:33N 23°01' E 113°32'0 0.0
2015-Apr-26 22:33N 23°01' E 113°32'0 0.0
2015-Apr-26 21:32N 23°01' E 113°32'0 0.0
2015-Apr-26 20:33N 23°01' E 113°32'0 0.0
2015-Apr-26 19:33N 23°01' E 113°32'1 0.7
2015-Apr-26 18:33N 23°00' E 113°32'10 9.6
2015-Apr-26 17:29N 22°50' E 113°35'2813.4
2015-Apr-26 15:25N 22°24' E 113°46'1213.7
2015-Apr-26 14:33N 22°13' E 113°48'7 5.9
2015-Apr-26 13:27N 22°06' E 113°49'1312.0
2015-Apr-26 12:23N 22°09' E 114°02'8 8.1
2015-Apr-26 11:26N 22°14' E 114°08'6 7.0
2015-Apr-26 10:33N 22°20' E 114°07'1 0.7
2015-Apr-26 09:33N 22°21' E 114°07'0 0.0
2015-Apr-26 08:31N 22°21' E 114°07'0 0.0
2015-Apr-26 07:31N 22°21' E 114°07'0 0.0
2015-Apr-26 06:31N 22°21' E 114°07'0 0.0
2015-Apr-26 05:25N 22°21' E 114°07'0 0.0
2015-Apr-26 04:31N 22°21' E 114°07'0 0.0
2015-Apr-26 03:19N 22°21' E 114°07'2 2.2
2015-Apr-26 02:33N 22°19' E 114°06'15 7.1
2015-Apr-26 00:31N 22°09' E 114°17'14019.7
2015-Apr-25 17:25N 22°47' E 116°43'64815.8
2015-Apr-24 00:26N 30°01' E 125°40'1617.8
2015-Apr-23 23:33N 30°14' E 125°49'5618.7
2015-Apr-23 20:33N 30°60' E 126°28'2119.0
2015-Apr-23 19:26N 31°16' E 126°44'21019.3
2015-Apr-23 08:33N 33°38' E 129°46'1919.0
2015-Apr-23 07:32N 33°44' E 130°09'1313.2
2015-Apr-23 06:33N 33°39' E 130°23'1 1.0
2015-Apr-23 05:32N 33°39' E 130°24'0 0.0
2015-Apr-23 04:32N 33°39' E 130°24'0 0.0
2015-Apr-23 03:32N 33°39' E 130°24'0 0.0
2015-Apr-23 02:32N 33°39' E 130°24'0 0.0
2015-Apr-23 01:32N 33°39' E 130°24'0 0.0
2015-Apr-23 00:32N 33°39' E 130°24'0 0.0
2015-Apr-22 23:32N 33°39' E 130°24'0 0.2
2015-Apr-22 22:32N 33°39' E 130°24'7 6.6
2015-Apr-22 21:31N 33°39' E 130°16'0 0.1
2015-Apr-22 20:31N 33°39' E 130°16'0 0.0
2015-Apr-22 19:31N 33°39' E 130°16'0 0.0
2015-Apr-22 18:28N 33°39' E 130°16'0 0.0
2015-Apr-22 17:31N 33°39' E 130°16'0 0.0
2015-Apr-22 16:31N 33°39' E 130°16'0 0.0
2015-Apr-22 15:31N 33°39' E 130°16'2 0.9
2015-Apr-22 13:32N 33°41' E 130°16'  
Track history (hours):
 
Tides and Currents Weather Stations Pressure Air Temp Water Temp Dewpoint Dewpoint Depression Visibility Wind Speed Wind Dir Waves Ship Positions

Toyofujimaru No.2

Last reported at 2015-Apr-27 04:33 UTC. Time now 2015-Apr-28 18:20 UTC.
Position N 22°06' E 113°49'.

Length 165 m; draft 6.4 m.

Type: Cargo ship. MMSI: 432667000.

Date/timePositionNaut miles runAvg speedWind from/ knotsBaromVisibWave heightAir tempDewpointWater temp
2015-Apr-27 04:33N 22°06' E 113°49'1312.9
2015-Apr-27 03:33N 22°19' E 113°48'2913.8
2015-Apr-27 01:27N 22°46' E 113°38'1010.8
2015-Apr-27 00:33N 22°55' E 113°34'6 5.9
2015-Apr-26 23:33N 23°01' E 113°32'0 0.0
2015-Apr-26 22:33N 23°01' E 113°32'0 0.0
2015-Apr-26 21:32N 23°01' E 113°32'0 0.0
2015-Apr-26 20:33N 23°01' E 113°32'0 0.0
2015-Apr-26 19:33N 23°01' E 113°32'1 0.7
2015-Apr-26 18:33N 23°00' E 113°32'10 9.6
2015-Apr-26 17:29N 22°50' E 113°35'2813.4
2015-Apr-26 15:25N 22°24' E 113°46'1213.7
2015-Apr-26 14:33N 22°13' E 113°48'7 5.9
2015-Apr-26 13:27N 22°06' E 113°49'1312.0
2015-Apr-26 12:23N 22°09' E 114°02'8 8.1
2015-Apr-26 11:26N 22°14' E 114°08'6 7.0
2015-Apr-26 10:33N 22°20' E 114°07'1 0.7
2015-Apr-26 09:33N 22°21' E 114°07'0 0.0
2015-Apr-26 08:31N 22°21' E 114°07'0 0.0
2015-Apr-26 07:31N 22°21' E 114°07'0 0.0
2015-Apr-26 06:31N 22°21' E 114°07'0 0.0
2015-Apr-26 05:25N 22°21' E 114°07'0 0.0
2015-Apr-26 04:31N 22°21' E 114°07'0 0.0
2015-Apr-26 03:19N 22°21' E 114°07'2 2.2
2015-Apr-26 02:33N 22°19' E 114°06'15 7.1
2015-Apr-26 00:31N 22°09' E 114°17'14019.7
2015-Apr-25 17:25N 22°47' E 116°43'64815.8
2015-Apr-24 00:26N 30°01' E 125°40'1617.8
2015-Apr-23 23:33N 30°14' E 125°49'5618.7
2015-Apr-23 20:33N 30°60' E 126°28'2119.0
2015-Apr-23 19:26N 31°16' E 126°44'21019.3
2015-Apr-23 08:33N 33°38' E 129°46'1919.0
2015-Apr-23 07:32N 33°44' E 130°09'1313.2
2015-Apr-23 06:33N 33°39' E 130°23'1 1.0
2015-Apr-23 05:32N 33°39' E 130°24'0 0.0
2015-Apr-23 04:32N 33°39' E 130°24'0 0.0
2015-Apr-23 03:32N 33°39' E 130°24'0 0.0
2015-Apr-23 02:32N 33°39' E 130°24'0 0.0
2015-Apr-23 01:32N 33°39' E 130°24'0 0.0
2015-Apr-23 00:32N 33°39' E 130°24'0 0.0
2015-Apr-22 23:32N 33°39' E 130°24'0 0.2
2015-Apr-22 22:32N 33°39' E 130°24'7 6.6
2015-Apr-22 21:31N 33°39' E 130°16'0 0.1
2015-Apr-22 20:31N 33°39' E 130°16'0 0.0
2015-Apr-22 19:31N 33°39' E 130°16'0 0.0
2015-Apr-22 18:28N 33°39' E 130°16'0 0.0
2015-Apr-22 17:31N 33°39' E 130°16'0 0.0
2015-Apr-22 16:31N 33°39' E 130°16'0 0.0
2015-Apr-22 15:31N 33°39' E 130°16'2 0.9
2015-Apr-22 13:32N 33°41' E 130°16'  

Dump ship's entire track history